createdAt,value
2019-05-01T00:01:03.824Z,12.17
2019-05-01T00:02:09.848Z,13.15
2019-05-01T00:03:21.964Z,13.27
2019-05-01T00:04:33.644Z,11.88
2019-05-01T00:05:42.425Z,12.63
2019-05-01T00:06:50.944Z,12.03
2019-05-01T00:07:56.197Z,12.07
2019-05-01T00:09:00.445Z,12.05
2019-05-01T00:10:06.875Z,12.23
2019-05-01T00:11:11.349Z,12.60
2019-05-01T00:12:15.528Z,12.40
2019-05-01T00:13:19.828Z,12.90
2019-05-01T00:14:24.009Z,12.25
2019-05-01T00:15:32.337Z,12.85
2019-05-01T00:16:36.529Z,13.13
2019-05-01T00:17:40.973Z,13.83
2019-05-01T00:18:45.374Z,12.37
2019-05-01T00:19:49.622Z,12.70
2019-05-01T00:20:53.909Z,13.32
2019-05-01T00:21:58.129Z,13.48
2019-05-01T00:23:02.386Z,13.58
2019-05-01T00:24:06.618Z,13.30
2019-05-01T00:25:10.874Z,12.57
2019-05-01T00:26:15.197Z,13.87
2019-05-01T00:27:20.551Z,13.47
2019-05-01T00:28:24.910Z,12.70
2019-05-01T00:29:29.417Z,13.30
2019-05-01T00:30:35.314Z,12.88
2019-05-01T00:31:39.565Z,14.35
2019-05-01T00:32:43.939Z,13.25
2019-05-01T00:33:48.224Z,13.48
2019-05-01T00:34:52.658Z,13.15
2019-05-01T00:35:56.912Z,13.25
2019-05-01T00:37:01.181Z,12.68
2019-05-01T00:38:05.710Z,12.95
2019-05-01T00:39:11.560Z,13.63
2019-05-01T00:40:16.182Z,13.43
2019-05-01T00:41:20.433Z,13.10
2019-05-01T00:42:24.612Z,14.13
2019-05-01T00:43:29.226Z,13.30
2019-05-01T00:44:33.715Z,13.22
2019-05-01T00:45:37.969Z,13.60
2019-05-01T00:46:42.226Z,14.00
2019-05-01T00:47:46.483Z,13.25
2019-05-01T00:48:50.886Z,13.68
2019-05-01T00:49:56.176Z,12.50
2019-05-01T00:51:00.489Z,13.20
2019-05-01T00:52:04.765Z,13.72
2019-05-01T00:53:08.954Z,13.62
2019-05-01T00:54:13.248Z,14.30
2019-05-01T00:55:34.289Z,13.07
2019-05-01T00:56:48.700Z,13.25
2019-05-01T00:57:54.531Z,14.18
2019-05-01T00:59:00.412Z,14.05
2019-05-01T01:00:20.630Z,13.28
2019-05-01T01:01:32.202Z,13.58
2019-05-01T01:02:38.028Z,13.20
2019-05-01T01:03:42.212Z,13.80
2019-05-01T01:04:46.596Z,13.83
2019-05-01T01:05:50.988Z,13.78
2019-05-01T01:06:55.243Z,15.05
2019-05-01T01:07:59.632Z,14.65
2019-05-01T01:09:07.615Z,15.16
2019-05-01T01:10:13.465Z,15.27
2019-05-01T01:11:17.646Z,15.00
2019-05-01T01:12:21.921Z,14.83
2019-05-01T01:13:26.108Z,14.15
2019-05-01T01:14:30.498Z,14.00
2019-05-01T01:15:34.670Z,13.85
2019-05-01T01:16:38.969Z,14.63
2019-05-01T01:17:43.178Z,13.75
2019-05-01T01:18:47.548Z,13.68
2019-05-01T01:19:52.661Z,14.70
2019-05-01T01:20:56.846Z,13.80
2019-05-01T01:22:01.185Z,13.48
2019-05-01T01:23:05.385Z,14.18
2019-05-01T01:24:09.570Z,13.57
2019-05-01T01:25:13.825Z,14.70
2019-05-01T01:26:18.346Z,13.93
2019-05-01T01:27:23.350Z,14.13
2019-05-01T01:28:27.557Z,13.93
2019-05-01T01:29:31.822Z,14.25
2019-05-01T01:30:36.001Z,13.75
2019-05-01T01:31:40.249Z,12.85
2019-05-01T01:32:44.543Z,13.25
2019-05-01T01:33:49.694Z,13.32
2019-05-01T01:34:53.949Z,14.18
2019-05-01T01:35:58.175Z,13.88
2019-05-01T01:37:02.527Z,13.75
2019-05-01T01:38:07.598Z,13.03
2019-05-01T01:39:11.825Z,14.07
2019-05-01T01:40:16.213Z,14.17
2019-05-01T01:41:20.399Z,13.97
2019-05-01T01:42:24.716Z,14.10
2019-05-01T01:43:48.709Z,13.38
2019-05-01T01:44:57.230Z,12.25
2019-05-01T01:46:05.605Z,14.07
2019-05-01T01:47:09.952Z,14.83
2019-05-01T01:48:17.655Z,14.78
2019-05-01T01:49:21.901Z,13.40
2019-05-01T01:50:26.080Z,14.35
2019-05-01T01:51:30.348Z,13.85
2019-05-01T01:52:34.593Z,13.28
2019-05-01T01:53:39.117Z,13.83
2019-05-01T01:54:44.567Z,14.47
2019-05-01T01:55:48.772Z,13.95
2019-05-01T01:56:52.959Z,14.20
2019-05-01T01:57:57.281Z,14.20
2019-05-01T01:59:01.516Z,14.35
2019-05-01T02:00:08.499Z,13.45
2019-05-01T02:01:31.342Z,14.03
2019-05-01T02:02:38.389Z,14.55
2019-05-01T02:03:47.300Z,13.68
2019-05-01T02:04:55.892Z,13.72
2019-05-01T02:06:00.321Z,13.98
2019-05-01T02:07:05.381Z,14.36
2019-05-01T02:08:09.690Z,14.68
2019-05-01T02:09:13.927Z,14.17
2019-05-01T02:10:18.334Z,13.83
2019-05-01T02:11:22.669Z,13.93
2019-05-01T02:12:26.853Z,13.83
2019-05-01T02:13:31.262Z,14.73
2019-05-01T02:14:35.445Z,14.43
2019-05-01T02:15:39.726Z,14.25
2019-05-01T02:16:44.876Z,13.38
2019-05-01T02:17:49.049Z,14.53
2019-05-01T02:18:53.628Z,13.78
2019-05-01T02:19:57.874Z,16.12
2019-05-01T02:21:02.059Z,14.58
2019-05-01T02:22:06.774Z,15.90
2019-05-01T02:23:11.025Z,15.47
2019-05-01T02:24:15.207Z,14.40
2019-05-01T02:25:19.665Z,15.43
2019-05-01T02:26:25.627Z,16.12
2019-05-01T02:27:37.040Z,15.23
2019-05-01T02:28:42.873Z,15.15
2019-05-01T02:29:48.683Z,14.95
2019-05-01T02:31:27.185Z,15.13
2019-05-01T02:32:16.380Z,14.65
2019-05-01T02:33:20.687Z,14.57
2019-05-01T02:34:26.195Z,14.60
2019-05-01T02:35:30.611Z,16.75
2019-05-01T02:36:34.811Z,15.48
2019-05-01T02:37:39.069Z,14.55
2019-05-01T02:38:43.499Z,14.85
2019-05-01T02:39:47.745Z,13.93
2019-05-01T02:40:53.681Z,14.95
2019-05-01T02:41:59.346Z,13.95
2019-05-01T02:43:03.505Z,14.00
2019-05-01T02:44:16.694Z,15.00
2019-05-01T02:45:21.413Z,15.13
2019-05-01T02:46:25.848Z,15.25
2019-05-01T02:47:31.996Z,14.25
2019-05-01T02:48:36.393Z,14.80
2019-05-01T02:49:51.926Z,14.23
2019-05-01T02:50:56.964Z,14.07
2019-05-01T02:52:01.967Z,14.60
2019-05-01T02:53:06.144Z,13.85
2019-05-01T02:54:11.184Z,14.30
2019-05-01T02:55:26.022Z,15.37
2019-05-01T02:56:34.542Z,15.10
2019-05-01T02:57:38.728Z,15.98
2019-05-01T02:58:43.589Z,15.53
2019-05-01T02:59:50.089Z,14.90
2019-05-01T03:00:54.273Z,15.23
2019-05-01T03:01:58.805Z,15.15
2019-05-01T03:03:02.989Z,15.07
2019-05-01T03:04:07.206Z,15.70
2019-05-01T03:05:11.423Z,15.90
2019-05-01T03:06:16.821Z,15.47
2019-05-01T03:07:21.162Z,14.35
2019-05-01T03:08:25.578Z,14.78
2019-05-01T03:09:29.816Z,15.80
2019-05-01T03:10:34.468Z,16.00
2019-05-01T03:11:39.346Z,15.05
2019-05-01T03:12:44.151Z,15.05
2019-05-01T03:13:48.358Z,14.95
2019-05-01T03:14:52.552Z,15.53
2019-05-01T03:15:56.742Z,15.03
2019-05-01T03:17:02.194Z,15.28
2019-05-01T03:18:14.695Z,15.50
2019-05-01T03:19:35.619Z,14.67
2019-05-01T03:20:41.507Z,15.58
2019-05-01T03:21:50.820Z,15.85
2019-05-01T03:23:14.731Z,15.88
2019-05-01T03:24:24.476Z,16.40
2019-05-01T03:25:28.704Z,15.33
2019-05-01T03:26:32.893Z,15.28
2019-05-01T03:27:37.163Z,14.53
2019-05-01T03:28:41.365Z,16.25
2019-05-01T03:29:45.552Z,15.75
2019-05-01T03:30:49.840Z,15.40
2019-05-01T03:32:15.968Z,15.55
2019-05-01T03:33:00.029Z,15.40
2019-05-01T03:34:04.945Z,15.35
2019-05-01T03:35:09.101Z,16.00
2019-05-01T03:36:14.254Z,15.03
2019-05-01T03:37:18.435Z,15.23
2019-05-01T03:38:22.640Z,16.17
2019-05-01T03:39:27.241Z,15.05
2019-05-01T03:40:31.565Z,15.75
2019-05-01T03:41:35.755Z,15.30
2019-05-01T03:42:40.013Z,16.07
2019-05-01T03:43:44.267Z,14.18
2019-05-01T03:44:48.476Z,15.65
2019-05-01T03:45:53.032Z,15.60
2019-05-01T03:46:57.204Z,15.00
2019-05-01T03:48:01.392Z,14.83
2019-05-01T03:49:05.579Z,14.75
2019-05-01T03:50:09.762Z,16.15
2019-05-01T03:51:13.990Z,16.47
2019-05-01T03:52:18.160Z,15.60
2019-05-01T03:53:22.694Z,15.93
2019-05-01T03:54:27.053Z,15.60
2019-05-01T03:55:31.356Z,16.10
2019-05-01T03:56:35.573Z,15.55
2019-05-01T03:57:39.727Z,16.87
2019-05-01T03:58:43.972Z,16.12
2019-05-01T03:59:48.190Z,16.12
2019-05-01T04:01:09.053Z,16.55
2019-05-01T04:02:33.968Z,17.10
2019-05-01T04:03:37.180Z,16.67
2019-05-01T04:04:41.418Z,16.37
2019-05-01T04:05:45.737Z,17.17
2019-05-01T04:06:49.943Z,16.95
2019-05-01T04:07:54.123Z,17.80
2019-05-01T04:08:58.316Z,18.20
2019-05-01T04:10:02.563Z,17.42
2019-05-01T04:11:06.826Z,17.90
2019-05-01T04:12:11.034Z,18.07
2019-05-01T04:13:15.365Z,17.77
2019-05-01T04:14:19.800Z,18.33
2019-05-01T04:15:24.003Z,17.73
2019-05-01T04:16:28.291Z,18.23
2019-05-01T04:17:36.624Z,18.12
2019-05-01T04:18:40.850Z,18.77
2019-05-01T04:19:45.111Z,18.75
2019-05-01T04:20:50.000Z,18.10
2019-05-01T04:21:56.919Z,19.60
2019-05-01T04:23:02.338Z,19.35
2019-05-01T04:24:06.575Z,19.75
2019-05-01T04:25:10.748Z,20.87
2019-05-01T04:26:14.937Z,20.67
2019-05-01T04:27:20.753Z,20.83
2019-05-01T04:28:26.661Z,21.05
2019-05-01T04:29:33.532Z,20.75
2019-05-01T04:30:57.570Z,20.35
2019-05-01T04:32:20.286Z,19.00
2019-05-01T04:33:24.540Z,20.70
2019-05-01T04:34:45.364Z,20.12
2019-05-01T04:36:07.594Z,20.25
2019-05-01T04:37:13.436Z,20.63
2019-05-01T04:38:18.970Z,19.97
2019-05-01T04:39:23.510Z,19.67
2019-05-01T04:40:27.731Z,20.55
2019-05-01T04:41:31.932Z,20.45
2019-05-01T04:42:36.195Z,19.82
2019-05-01T04:43:40.363Z,20.92
2019-05-01T04:44:44.693Z,19.82
2019-05-01T04:45:50.340Z,21.25
2019-05-01T04:46:54.527Z,20.05
2019-05-01T04:47:58.892Z,20.25
2019-05-01T04:49:03.073Z,21.37
2019-05-01T04:50:07.280Z,21.45
2019-05-01T04:51:11.493Z,20.80
2019-05-01T04:52:15.823Z,19.42
2019-05-01T04:53:20.018Z,20.57
2019-05-01T04:54:24.201Z,20.43
2019-05-01T04:55:28.403Z,20.75
2019-05-01T04:56:32.615Z,20.10
2019-05-01T04:57:36.945Z,20.30
2019-05-01T04:58:41.130Z,20.52
2019-05-01T04:59:45.392Z,19.00
2019-05-01T05:00:49.621Z,20.50
2019-05-01T05:02:01.561Z,20.20
2019-05-01T05:03:10.375Z,21.05
2019-05-01T05:04:14.993Z,20.70
2019-05-01T05:05:19.295Z,20.40
2019-05-01T05:06:23.601Z,20.95
2019-05-01T05:07:27.807Z,20.95
2019-05-01T05:08:31.996Z,20.55
2019-05-01T05:09:43.181Z,20.62
2019-05-01T05:10:48.542Z,21.87
2019-05-01T05:12:00.416Z,21.50
2019-05-01T05:13:15.907Z,20.45
2019-05-01T05:14:24.675Z,20.30
2019-05-01T05:15:33.174Z,20.95
2019-05-01T05:16:48.280Z,21.00
2019-05-01T05:17:52.581Z,21.45
2019-05-01T05:18:56.799Z,20.70
2019-05-01T05:20:01.190Z,20.72
2019-05-01T05:21:05.438Z,20.92
2019-05-01T05:22:09.604Z,19.83
2019-05-01T05:23:14.760Z,18.83
2019-05-01T05:24:18.979Z,19.97
2019-05-01T05:25:23.158Z,19.33
2019-05-01T05:26:27.341Z,20.23
2019-05-01T05:27:31.593Z,20.52
2019-05-01T05:28:35.950Z,21.05
2019-05-01T05:29:40.231Z,19.52
2019-05-01T05:30:44.953Z,19.35
2019-05-01T05:31:49.301Z,19.75
2019-05-01T05:32:53.693Z,19.95
2019-05-01T05:33:58.136Z,19.03
2019-05-01T05:35:02.392Z,19.52
2019-05-01T05:36:07.032Z,19.25
2019-05-01T05:37:12.853Z,18.37
2019-05-01T05:38:33.648Z,19.37
2019-05-01T05:39:39.502Z,19.35
2019-05-01T05:40:43.778Z,18.27
2019-05-01T05:41:48.105Z,20.72
2019-05-01T05:42:52.322Z,20.12
2019-05-01T05:43:56.805Z,19.75
2019-05-01T05:45:01.213Z,20.12
2019-05-01T05:46:05.476Z,19.62
2019-05-01T05:47:09.732Z,21.53
2019-05-01T05:48:13.930Z,21.00
2019-05-01T05:49:18.140Z,19.53
2019-05-01T05:50:23.964Z,20.03
2019-05-01T05:51:44.865Z,20.32
2019-05-01T05:53:04.471Z,21.07
2019-05-01T05:54:16.179Z,21.87
2019-05-01T05:55:31.174Z,22.27
2019-05-01T05:56:37.204Z,20.95
2019-05-01T05:57:58.238Z,21.33
2019-05-01T05:59:07.626Z,21.20
2019-05-01T06:00:13.501Z,22.50
2019-05-01T06:01:28.526Z,23.17
2019-05-01T06:02:34.393Z,22.95
2019-05-01T06:03:55.467Z,23.95
2019-05-01T06:05:06.100Z,23.55
2019-05-01T06:06:17.698Z,22.73
2019-05-01T06:07:26.485Z,24.50
2019-05-01T06:08:30.788Z,24.57
2019-05-01T06:09:36.705Z,29.90
2019-05-01T06:10:45.536Z,31.50
2019-05-01T06:11:59.952Z,30.00
2019-05-01T06:13:23.098Z,29.00
2019-05-01T06:14:42.249Z,24.85
2019-05-01T06:16:04.151Z,25.12
2019-05-01T06:17:28.900Z,25.88
2019-05-01T06:18:39.281Z,25.52
2019-05-01T06:19:49.300Z,24.47
2019-05-01T06:20:57.207Z,23.20
2019-05-01T06:22:21.463Z,23.75
2019-05-01T06:23:37.229Z,22.85
2019-05-01T06:24:43.059Z,25.23
2019-05-01T06:25:48.894Z,22.20
2019-05-01T06:26:53.122Z,24.18
2019-05-01T06:27:57.425Z,23.80
2019-05-01T06:29:02.445Z,24.18
2019-05-01T06:30:10.994Z,23.75
2019-05-01T06:31:23.115Z,23.20
2019-05-01T06:33:28.033Z,22.58
2019-05-01T06:34:32.251Z,22.82
2019-05-01T06:35:38.078Z,22.87
2019-05-01T06:36:44.311Z,23.50
2019-05-01T06:38:02.183Z,23.40
2019-05-01T06:39:11.879Z,22.60
2019-05-01T06:40:18.778Z,22.10
2019-05-01T06:41:21.352Z,23.73
2019-05-01T06:42:25.472Z,22.73
2019-05-01T06:43:31.545Z,21.77
2019-05-01T06:44:45.821Z,22.90
2019-05-01T06:46:07.912Z,22.70
2019-05-01T06:47:13.757Z,22.07
2019-05-01T06:48:19.594Z,22.73
2019-05-01T06:49:31.297Z,22.52
2019-05-01T06:50:41.428Z,22.32
2019-05-01T06:51:48.074Z,20.80
2019-05-01T06:53:56.685Z,19.95
2019-05-01T06:55:00.901Z,21.23
2019-05-01T06:56:05.080Z,20.30
2019-05-01T06:57:09.269Z,21.53
2019-05-01T06:58:14.779Z,21.17
2019-05-01T06:59:19.473Z,21.15
2019-05-01T07:00:23.697Z,22.00
2019-05-01T07:01:27.948Z,19.45
2019-05-01T07:02:35.126Z,22.20
2019-05-01T07:03:40.823Z,20.97
2019-05-01T07:04:44.190Z,21.33
2019-05-01T07:05:49.158Z,21.77
2019-05-01T07:06:54.462Z,22.82
2019-05-01T07:07:58.708Z,21.40
2019-05-01T07:09:06.958Z,22.20
2019-05-01T07:10:10.412Z,21.70
2019-05-01T07:11:15.603Z,22.50
2019-05-01T07:12:24.009Z,23.47
2019-05-01T07:13:28.033Z,21.68
2019-05-01T07:14:41.037Z,22.77
2019-05-01T07:18:37.427Z,20.13
2019-05-01T07:19:57.520Z,21.25
2019-05-01T07:21:02.344Z,20.37
2019-05-01T07:22:07.479Z,21.85
2019-05-01T07:23:17.497Z,20.80
2019-05-01T07:24:19.027Z,21.50
2019-05-01T07:25:23.210Z,23.15
2019-05-01T07:26:27.399Z,22.60
2019-05-01T07:27:31.633Z,20.65
2019-05-01T07:28:37.000Z,22.22
2019-05-01T07:29:44.875Z,22.27
2019-05-01T07:30:56.292Z,21.30
2019-05-01T07:32:01.700Z,23.02
2019-05-01T07:33:06.578Z,22.30
2019-05-01T07:34:16.785Z,21.60
2019-05-01T07:35:17.004Z,21.87
2019-05-01T07:36:21.317Z,21.83
2019-05-01T07:37:27.593Z,22.10
2019-05-01T07:38:32.882Z,21.17
2019-05-01T07:39:37.374Z,21.05
2019-05-01T07:40:41.555Z,20.65
2019-05-01T07:41:45.840Z,21.97
2019-05-01T07:42:54.569Z,21.90
2019-05-01T07:44:18.988Z,22.77
2019-05-01T07:45:26.591Z,22.55
2019-05-01T07:46:35.097Z,20.85
2019-05-01T07:47:40.951Z,21.77
2019-05-01T07:48:45.228Z,21.90
2019-05-01T07:49:54.987Z,20.57
2019-05-01T07:51:01.848Z,20.85
2019-05-01T07:52:05.118Z,21.73
2019-05-01T07:53:09.326Z,22.80
2019-05-01T07:54:13.623Z,21.93
2019-05-01T07:55:20.079Z,23.27
2019-05-01T07:56:28.012Z,22.80
2019-05-01T07:57:34.239Z,22.67
2019-05-01T07:58:38.350Z,21.42
2019-05-01T07:59:42.536Z,21.40
2019-05-01T08:00:54.165Z,22.15
2019-05-01T08:02:00.002Z,22.10
2019-05-01T08:03:07.162Z,22.52
2019-05-01T08:04:13.820Z,23.05
2019-05-01T08:05:16.354Z,22.70
2019-05-01T08:06:21.859Z,22.67
2019-05-01T08:07:27.735Z,23.00
2019-05-01T08:08:32.334Z,21.73
2019-05-01T08:09:36.533Z,22.40
2019-05-01T08:10:41.081Z,21.52
2019-05-01T08:11:46.022Z,21.68
2019-05-01T08:12:50.237Z,21.90
2019-05-01T08:14:06.599Z,23.20
2019-05-01T08:15:00.297Z,22.70
2019-05-01T08:16:07.242Z,20.92
2019-05-01T08:17:12.748Z,22.07
2019-05-01T08:18:30.982Z,22.60
2019-05-01T08:19:40.723Z,20.23
2019-05-01T08:20:58.660Z,21.47
2019-05-01T08:22:13.892Z,21.68
2019-05-01T08:23:18.105Z,21.50
2019-05-01T08:24:24.430Z,21.40
2019-05-01T08:25:33.106Z,21.35
2019-05-01T08:26:34.739Z,21.48
2019-05-01T08:27:46.428Z,22.02
2019-05-01T08:28:54.951Z,22.90
2019-05-01T08:30:18.598Z,21.85
2019-05-01T08:31:29.003Z,20.77
2019-05-01T08:32:42.171Z,23.07
2019-05-01T08:33:54.007Z,21.85
2019-05-01T08:35:02.160Z,20.72
2019-05-01T08:36:06.785Z,22.37
2019-05-01T08:37:12.246Z,21.60
2019-05-01T08:38:16.435Z,21.13
2019-05-01T08:39:20.640Z,22.03
2019-05-01T08:40:24.892Z,21.70
2019-05-01T08:41:31.835Z,22.15
2019-05-01T08:42:37.747Z,21.50
2019-05-01T08:43:41.145Z,21.45
2019-05-01T08:45:05.115Z,21.97
2019-05-01T08:46:16.531Z,21.73
2019-05-01T08:48:46.686Z,22.48
2019-05-01T08:49:52.597Z,21.45
2019-05-01T08:50:59.220Z,21.37
2019-05-01T08:52:11.225Z,21.80
2019-05-01T08:53:10.965Z,22.07
2019-05-01T08:54:15.222Z,22.20
2019-05-01T08:55:19.417Z,22.03
2019-05-01T08:56:23.946Z,20.80
2019-05-01T08:57:29.209Z,21.82
2019-05-01T08:58:34.163Z,22.17
2019-05-01T08:59:38.482Z,21.73
2019-05-01T09:00:43.269Z,22.50
2019-05-01T09:01:50.633Z,22.58
2019-05-01T09:02:54.017Z,22.40
2019-05-01T09:03:58.366Z,20.95
2019-05-01T09:05:06.834Z,22.93
2019-05-01T09:06:09.189Z,21.90
2019-05-01T09:07:14.745Z,21.30
2019-05-01T09:08:19.858Z,21.83
2019-05-01T09:09:25.077Z,22.15
2019-05-01T09:10:29.343Z,22.77
2019-05-01T09:11:36.271Z,22.95
2019-05-01T09:12:42.583Z,22.05
2019-05-01T09:13:45.944Z,23.47
2019-05-01T09:14:51.274Z,22.48
2019-05-01T09:15:55.998Z,22.82
2019-05-01T09:17:00.683Z,22.07
2019-05-01T09:18:05.038Z,22.93
2019-05-01T09:19:09.462Z,22.55
2019-05-01T09:20:16.591Z,21.83
2019-05-01T09:21:20.214Z,22.27
2019-05-01T09:22:24.520Z,22.17
2019-05-01T09:23:28.774Z,23.40
2019-05-01T09:24:33.164Z,22.15
2019-05-01T09:25:55.129Z,22.65
2019-05-01T09:27:18.671Z,22.77
2019-05-01T09:28:35.957Z,20.03
2019-05-01T09:29:46.916Z,21.60
2019-05-01T09:31:01.283Z,21.30
2019-05-01T09:32:00.419Z,21.82
2019-05-01T09:33:04.988Z,22.28
2019-05-01T09:34:09.614Z,22.00
2019-05-01T09:35:15.797Z,21.20
2019-05-01T09:36:19.824Z,21.57
2019-05-01T09:37:24.107Z,20.20
2019-05-01T09:38:28.531Z,19.52
2019-05-01T09:39:32.831Z,21.23
2019-05-01T09:40:37.104Z,21.37
2019-05-01T09:41:43.111Z,21.75
2019-05-01T09:42:47.652Z,20.88
2019-05-01T09:43:52.953Z,21.55
2019-05-01T09:44:57.393Z,20.57
2019-05-01T09:46:01.835Z,20.50
2019-05-01T09:47:07.499Z,20.75
2019-05-01T09:48:11.847Z,21.73
2019-05-01T09:49:18.223Z,22.03
2019-05-01T09:50:25.949Z,21.20
2019-05-01T09:51:47.542Z,22.27
2019-05-01T09:52:55.271Z,21.48
2019-05-01T09:54:09.894Z,19.98
2019-05-01T09:55:23.038Z,20.90
2019-05-01T09:56:26.468Z,21.55
2019-05-01T09:57:31.093Z,20.08
2019-05-01T09:58:35.295Z,20.52
2019-05-01T09:59:39.549Z,20.05
2019-05-01T10:00:48.763Z,21.02
2019-05-01T10:01:50.791Z,20.55
2019-05-01T10:02:55.042Z,19.95
2019-05-01T10:03:59.377Z,19.48
2019-05-01T10:05:06.753Z,20.85
2019-05-01T10:06:12.821Z,22.30
2019-05-01T10:07:17.472Z,21.50
2019-05-01T10:08:21.950Z,21.20
2019-05-01T10:09:26.936Z,19.80
2019-05-01T10:10:31.273Z,21.05
2019-05-01T10:11:40.687Z,21.02
2019-05-01T10:12:46.868Z,20.15
2019-05-01T10:13:49.373Z,21.50
2019-05-01T10:14:53.756Z,21.65
2019-05-01T10:15:58.266Z,18.62
2019-05-01T10:17:02.563Z,19.00
2019-05-01T10:18:07.030Z,18.25
2019-05-01T10:19:11.354Z,18.40
2019-05-01T10:20:15.822Z,17.93
2019-05-01T10:21:22.406Z,17.60
2019-05-01T10:22:26.302Z,17.12
2019-05-01T10:23:30.725Z,17.15
2019-05-01T10:24:37.757Z,17.45
2019-05-01T10:25:47.426Z,18.50
2019-05-01T10:26:50.328Z,20.77
2019-05-01T10:28:01.841Z,19.73
2019-05-01T10:29:10.582Z,19.52
2019-05-01T10:30:36.282Z,18.37
2019-05-01T10:31:59.346Z,16.95
2019-05-01T10:33:17.778Z,16.35
2019-05-01T10:34:38.612Z,15.33
2019-05-01T10:36:00.078Z,15.05
2019-05-01T10:37:04.844Z,15.18
2019-05-01T10:38:10.749Z,17.12
2019-05-01T10:39:16.098Z,15.90
2019-05-01T10:40:22.431Z,15.50
2019-05-01T10:41:26.830Z,14.68
2019-05-01T10:42:31.259Z,15.17
2019-05-01T10:43:35.541Z,14.45
2019-05-01T10:44:40.042Z,13.50
2019-05-01T10:45:45.930Z,13.50
2019-05-01T10:46:50.253Z,11.57
2019-05-01T10:47:54.617Z,12.07
2019-05-01T10:48:59.003Z,11.78
2019-05-01T10:50:03.820Z,10.58
2019-05-01T10:51:08.201Z,10.65
2019-05-01T10:52:14.345Z,8.87
2019-05-01T10:53:18.667Z,8.40
2019-05-01T10:54:23.827Z,8.37
2019-05-01T10:55:28.494Z,8.48
2019-05-01T10:56:32.861Z,7.37
2019-05-01T10:57:40.240Z,8.00
2019-05-01T10:58:43.218Z,9.80
2019-05-01T10:59:47.636Z,8.80
2019-05-01T11:00:53.498Z,10.40
2019-05-01T11:01:59.322Z,9.53
2019-05-01T11:03:03.504Z,11.78
2019-05-01T11:04:07.767Z,11.70
2019-05-01T11:05:11.948Z,10.43
2019-05-01T11:06:16.299Z,11.25
2019-05-01T11:07:20.505Z,10.80
2019-05-01T11:08:24.857Z,10.63
2019-05-01T11:09:29.197Z,10.88
2019-05-01T11:10:33.408Z,11.43
2019-05-01T11:11:37.648Z,10.63
2019-05-01T11:12:41.779Z,10.53
2019-05-01T11:13:45.972Z,11.80
2019-05-01T11:14:50.498Z,10.58
2019-05-01T11:15:55.935Z,9.93
2019-05-01T11:17:00.191Z,10.72
2019-05-01T11:18:05.064Z,11.36
2019-05-01T11:19:09.468Z,10.98
2019-05-01T11:20:13.747Z,10.23
2019-05-01T11:21:17.972Z,10.35
2019-05-01T11:22:22.258Z,10.43
2019-05-01T11:23:26.617Z,9.88
2019-05-01T11:24:30.805Z,8.98
2019-05-01T11:25:36.340Z,9.65
2019-05-01T11:26:40.700Z,8.98
2019-05-01T11:27:45.082Z,8.50
2019-05-01T11:28:49.329Z,10.32
2019-05-01T11:29:53.510Z,10.03
2019-05-01T11:30:57.842Z,9.58
2019-05-01T11:32:19.964Z,9.93
2019-05-01T11:33:34.303Z,8.93
2019-05-01T11:34:45.864Z,8.95
2019-05-01T11:35:54.241Z,7.45
2019-05-01T11:37:08.780Z,7.45
2019-05-01T11:38:20.727Z,7.60
2019-05-01T11:39:40.275Z,8.20
2019-05-01T11:40:45.297Z,8.77
2019-05-01T11:41:56.922Z,8.50
2019-05-01T11:43:02.800Z,9.60
2019-05-01T11:49:02.648Z,8.37
2019-05-01T11:50:07.044Z,9.85
2019-05-01T11:51:11.222Z,8.77
2019-05-01T11:52:15.604Z,8.80
2019-05-01T11:53:19.806Z,8.67
2019-05-01T11:54:23.997Z,10.00
2019-05-01T11:55:28.227Z,9.10
2019-05-01T11:56:32.415Z,8.80
2019-05-01T11:57:36.808Z,9.05
2019-05-01T11:58:40.988Z,9.05
2019-05-01T11:59:45.188Z,8.15
2019-05-01T12:00:50.465Z,9.18
2019-05-01T12:01:54.715Z,8.20
2019-05-01T12:02:58.954Z,9.50
2019-05-01T12:04:03.256Z,8.98
2019-05-01T12:05:07.508Z,8.85
2019-05-01T12:06:22.326Z,9.13
2019-05-01T12:07:17.760Z,9.00
2019-05-01T12:08:22.090Z,9.17
2019-05-01T12:09:26.271Z,7.55
2019-05-01T12:10:30.674Z,8.90
2019-05-01T12:11:35.925Z,8.25
2019-05-01T12:12:40.202Z,7.72
2019-05-01T12:13:44.508Z,7.58
2019-05-01T12:14:48.806Z,7.35
2019-05-01T12:15:54.622Z,9.58
2019-05-01T12:17:00.473Z,9.00
2019-05-01T12:18:04.763Z,8.08
2019-05-01T12:19:09.016Z,8.40
2019-05-01T12:20:13.773Z,8.43
2019-05-01T12:21:17.947Z,8.60
2019-05-01T12:22:22.161Z,9.10
2019-05-01T12:23:26.364Z,9.13
2019-05-01T12:24:30.766Z,9.80
2019-05-01T12:25:35.242Z,9.23
2019-05-01T12:26:39.420Z,9.83
2019-05-01T12:27:43.947Z,9.55
2019-05-01T12:28:48.131Z,8.65
2019-05-01T12:29:52.479Z,9.45
2019-05-01T12:30:56.648Z,8.95
2019-05-01T12:32:00.928Z,9.48
2019-05-01T12:33:05.097Z,9.35
2019-05-01T12:34:09.278Z,8.75
2019-05-01T12:35:13.624Z,8.90
2019-05-01T12:36:18.040Z,9.10
2019-05-01T12:37:23.851Z,9.57
2019-05-01T12:38:28.386Z,10.67
2019-05-01T12:39:32.636Z,9.80
2019-05-01T12:40:37.127Z,9.40
2019-05-01T12:41:45.703Z,9.65
2019-05-01T12:42:49.890Z,9.05
2019-05-01T12:43:54.213Z,8.18
2019-05-01T12:44:59.651Z,10.60
2019-05-01T12:46:04.642Z,10.00
2019-05-01T12:47:19.383Z,8.98
2019-05-01T12:48:23.829Z,9.23
2019-05-01T12:49:28.080Z,9.45
2019-05-01T12:50:32.312Z,9.10
2019-05-01T12:51:37.352Z,9.25
2019-05-01T12:52:47.464Z,8.58
2019-05-01T12:53:53.295Z,8.10
2019-05-01T12:55:15.004Z,8.35
2019-05-01T12:56:20.864Z,8.33
2019-05-01T12:57:25.054Z,8.95
2019-05-01T12:58:29.397Z,9.05
2019-05-01T12:59:33.540Z,8.58
2019-05-01T13:00:45.189Z,8.70
2019-05-01T13:01:49.360Z,8.70
2019-05-01T13:02:53.662Z,9.15
2019-05-01T13:03:57.944Z,8.00
2019-05-01T13:05:02.135Z,8.48
2019-05-01T13:06:06.329Z,9.03
2019-05-01T13:07:10.517Z,9.13
2019-05-01T13:08:14.732Z,8.90
2019-05-01T13:09:18.919Z,7.93
2019-05-01T13:10:23.089Z,7.47
2019-05-01T13:11:27.385Z,8.25
2019-05-01T13:12:31.552Z,8.48
2019-05-01T13:13:35.863Z,8.18
2019-05-01T13:14:40.026Z,8.35
2019-05-01T13:15:44.201Z,8.25
2019-05-01T13:16:48.382Z,8.43
2019-05-01T13:17:52.638Z,8.43
2019-05-01T13:18:56.841Z,7.95
2019-05-01T13:20:01.095Z,7.55
2019-05-01T13:21:05.280Z,7.15
2019-05-01T13:22:09.460Z,7.28
2019-05-01T13:23:13.766Z,7.70
2019-05-01T13:24:18.135Z,7.95
2019-05-01T13:25:22.330Z,7.17
2019-05-01T13:26:36.949Z,7.15
2019-05-01T13:27:42.773Z,7.17
2019-05-01T13:28:57.397Z,6.60
2019-05-01T13:30:08.908Z,7.30
2019-05-01T13:31:14.814Z,6.90
2019-05-01T13:32:20.649Z,7.20
2019-05-01T13:33:25.010Z,7.58
2019-05-01T13:34:29.194Z,7.25
2019-05-01T13:35:33.465Z,7.10
2019-05-01T13:36:37.937Z,7.65
2019-05-01T13:37:42.109Z,6.60
2019-05-01T13:38:46.427Z,6.65
2019-05-01T13:39:51.678Z,6.75
2019-05-01T13:40:55.872Z,7.20
2019-05-01T13:42:00.204Z,6.50
2019-05-01T13:43:04.388Z,6.28
2019-05-01T13:46:40.200Z,6.87
2019-05-01T13:47:44.485Z,6.33
2019-05-01T13:48:48.651Z,6.90
2019-05-01T13:49:52.904Z,6.87
2019-05-01T13:50:58.149Z,7.03
2019-05-01T13:52:02.347Z,6.37
2019-05-01T13:53:06.647Z,6.30
2019-05-01T13:54:11.317Z,5.90
2019-05-01T13:55:15.571Z,5.72
2019-05-01T13:56:19.885Z,5.47
2019-05-01T13:57:24.201Z,5.37
2019-05-01T13:58:29.502Z,4.85
2019-05-01T13:59:33.677Z,4.80
2019-05-01T14:00:38.047Z,5.33
2019-05-01T14:01:42.225Z,5.53
2019-05-01T14:02:46.474Z,5.42
2019-05-01T14:03:50.651Z,5.85
2019-05-01T14:04:54.934Z,5.62
2019-05-01T14:05:59.234Z,5.53
2019-05-01T14:07:15.903Z,5.58
2019-05-01T14:08:10.198Z,5.37
2019-05-01T14:09:19.233Z,5.73
2019-05-01T14:10:24.116Z,5.47
2019-05-01T14:11:28.320Z,6.08
2019-05-01T14:12:32.490Z,5.83
2019-05-01T14:13:36.721Z,6.03
2019-05-01T14:14:40.958Z,6.05
2019-05-01T14:15:45.354Z,6.47
2019-05-01T14:16:49.629Z,5.70
2019-05-01T14:17:53.828Z,6.70
2019-05-01T14:18:58.041Z,6.55
2019-05-01T14:20:03.997Z,6.00
2019-05-01T14:21:18.887Z,5.87
2019-05-01T14:22:33.595Z,6.10
2019-05-01T14:23:45.240Z,5.78
2019-05-01T14:24:51.044Z,6.30
2019-05-01T14:26:06.188Z,5.85
2019-05-01T14:27:10.356Z,5.80
2019-05-01T14:28:14.574Z,6.30
2019-05-01T14:29:18.793Z,5.70
2019-05-01T14:30:22.964Z,6.55
2019-05-01T14:31:27.140Z,6.53
2019-05-01T14:32:31.389Z,6.20
2019-05-01T14:33:35.592Z,6.95
2019-05-01T14:34:39.881Z,6.67
2019-05-01T14:35:44.133Z,6.33